sensor_id;sensor_type;location;lat;lon;timestamp;P1;durP1;ratioP1;P2;durP2;ratioP2
57023;SDS011;42916;54.346;18.562;2023-12-28T00:01:48;22.80;;;8.70;;
57023;SDS011;42916;54.346;18.562;2023-12-28T00:04:16;25.20;;;9.00;;
57023;SDS011;42916;54.346;18.562;2023-12-28T00:06:43;21.40;;;8.60;;
57023;SDS011;42916;54.346;18.562;2023-12-28T00:09:10;20.30;;;8.10;;
57023;SDS011;42916;54.346;18.562;2023-12-28T00:11:37;20.70;;;8.40;;
57023;SDS011;42916;54.346;18.562;2023-12-28T00:14:04;20.20;;;8.00;;
57023;SDS011;42916;54.346;18.562;2023-12-28T00:16:31;21.20;;;8.60;;
57023;SDS011;42916;54.346;18.562;2023-12-28T00:19:03;20.70;;;9.00;;
57023;SDS011;42916;54.346;18.562;2023-12-28T00:21:30;24.10;;;9.00;;
57023;SDS011;42916;54.346;18.562;2023-12-28T00:23:57;25.70;;;9.40;;
57023;SDS011;42916;54.346;18.562;2023-12-28T00:26:23;21.00;;;8.60;;
57023;SDS011;42916;54.346;18.562;2023-12-28T00:28:58;27.60;;;10.00;;
57023;SDS011;42916;54.346;18.562;2023-12-28T00:31:25;24.10;;;10.80;;
57023;SDS011;42916;54.346;18.562;2023-12-28T00:33:52;26.40;;;11.40;;
57023;SDS011;42916;54.346;18.562;2023-12-28T00:36:19;26.70;;;10.50;;
57023;SDS011;42916;54.346;18.562;2023-12-28T00:38:47;25.10;;;9.60;;
57023;SDS011;42916;54.346;18.562;2023-12-28T00:41:13;23.90;;;9.70;;
57023;SDS011;42916;54.346;18.562;2023-12-28T00:43:40;25.30;;;10.60;;
57023;SDS011;42916;54.346;18.562;2023-12-28T00:46:06;23.40;;;11.30;;
57023;SDS011;42916;54.346;18.562;2023-12-28T00:48:33;29.70;;;10.60;;
57023;SDS011;42916;54.346;18.562;2023-12-28T00:51:01;26.60;;;11.10;;
57023;SDS011;42916;54.346;18.562;2023-12-28T00:53:28;27.50;;;11.40;;
57023;SDS011;42916;54.346;18.562;2023-12-28T00:55:55;29.10;;;11.40;;
57023;SDS011;42916;54.346;18.562;2023-12-28T00:58:22;26.90;;;10.00;;
57023;SDS011;42916;54.346;18.562;2023-12-28T01:00:49;24.00;;;9.90;;
57023;SDS011;42916;54.346;18.562;2023-12-28T01:03:19;26.60;;;10.40;;
57023;SDS011;42916;54.346;18.562;2023-12-28T01:05:46;27.30;;;10.50;;
57023;SDS011;42916;54.346;18.562;2023-12-28T01:08:16;24.20;;;10.20;;
57023;SDS011;42916;54.346;18.562;2023-12-28T01:10:44;25.90;;;10.80;;
57023;SDS011;42916;54.346;18.562;2023-12-28T01:13:10;21.10;;;9.90;;
57023;SDS011;42916;54.346;18.562;2023-12-28T01:15:37;26.30;;;9.40;;
57023;SDS011;42916;54.346;18.562;2023-12-28T01:18:04;20.20;;;8.30;;
57023;SDS011;42916;54.346;18.562;2023-12-28T01:20:31;24.50;;;10.30;;
57023;SDS011;42916;54.346;18.562;2023-12-28T01:22:58;24.80;;;10.40;;
57023;SDS011;42916;54.346;18.562;2023-12-28T01:25:24;23.30;;;9.10;;
57023;SDS011;42916;54.346;18.562;2023-12-28T01:27:51;28.50;;;10.40;;
57023;SDS011;42916;54.346;18.562;2023-12-28T01:30:18;20.80;;;9.10;;
57023;SDS011;42916;54.346;18.562;2023-12-28T01:32:48;24.70;;;9.60;;
57023;SDS011;42916;54.346;18.562;2023-12-28T01:35:15;32.40;;;11.00;;
57023;SDS011;42916;54.346;18.562;2023-12-28T01:37:41;24.50;;;9.90;;
57023;SDS011;42916;54.346;18.562;2023-12-28T01:40:08;22.40;;;8.30;;
57023;SDS011;42916;54.346;18.562;2023-12-28T01:42:35;22.10;;;8.70;;
57023;SDS011;42916;54.346;18.562;2023-12-28T01:45:03;25.50;;;10.10;;
57023;SDS011;42916;54.346;18.562;2023-12-28T01:47:30;20.80;;;10.20;;
57023;SDS011;42916;54.346;18.562;2023-12-28T01:49:57;21.80;;;10.50;;
57023;SDS011;42916;54.346;18.562;2023-12-28T01:52:26;17.60;;;9.40;;
57023;SDS011;42916;54.346;18.562;2023-12-28T01:54:54;26.40;;;8.90;;
57023;SDS011;42916;54.346;18.562;2023-12-28T01:57:21;17.80;;;8.30;;
57023;SDS011;42916;54.346;18.562;2023-12-28T01:59:49;18.20;;;8.10;;
57023;SDS011;42916;54.346;18.562;2023-12-28T02:02:16;24.90;;;9.80;;
57023;SDS011;42916;54.346;18.562;2023-12-28T02:04:43;23.80;;;10.60;;
57023;SDS011;42916;54.346;18.562;2023-12-28T02:07:11;26.20;;;10.50;;
57023;SDS011;42916;54.346;18.562;2023-12-28T02:09:39;23.40;;;8.70;;
57023;SDS011;42916;54.346;18.562;2023-12-28T02:12:06;18.40;;;9.50;;
57023;SDS011;42916;54.346;18.562;2023-12-28T02:14:33;29.10;;;9.40;;
57023;SDS011;42916;54.346;18.562;2023-12-28T02:17:02;22.20;;;9.80;;
57023;SDS011;42916;54.346;18.562;2023-12-28T02:22:26;28.80;;;11.30;;
57023;SDS011;42916;54.346;18.562;2023-12-28T02:25:06;19.70;;;9.50;;
57023;SDS011;42916;54.346;18.562;2023-12-28T02:27:35;27.40;;;11.80;;
57023;SDS011;42916;54.346;18.562;2023-12-28T02:30:05;28.40;;;11.40;;
57023;SDS011;42916;54.346;18.562;2023-12-28T02:35:32;31.30;;;13.20;;
57023;SDS011;42916;54.346;18.562;2023-12-28T02:38:11;39.10;;;15.20;;
57023;SDS011;42916;54.346;18.562;2023-12-28T02:40:40;29.30;;;11.80;;
57023;SDS011;42916;54.346;18.562;2023-12-28T02:43:10;28.30;;;11.40;;
57023;SDS011;42916;54.346;18.562;2023-12-28T02:45:38;34.80;;;14.60;;
57023;SDS011;42916;54.346;18.562;2023-12-28T02:48:05;36.10;;;15.90;;
57023;SDS011;42916;54.346;18.562;2023-12-28T02:50:33;39.00;;;15.20;;
57023;SDS011;42916;54.346;18.562;2023-12-28T02:53:01;37.90;;;14.50;;
57023;SDS011;42916;54.346;18.562;2023-12-28T02:55:28;37.30;;;15.60;;
57023;SDS011;42916;54.346;18.562;2023-12-28T02:57:56;40.20;;;17.10;;
57023;SDS011;42916;54.346;18.562;2023-12-28T03:00:26;34.60;;;15.90;;
57023;SDS011;42916;54.346;18.562;2023-12-28T03:02:54;33.40;;;14.50;;
57023;SDS011;42916;54.346;18.562;2023-12-28T03:05:21;29.30;;;13.60;;
57023;SDS011;42916;54.346;18.562;2023-12-28T03:07:48;29.00;;;13.90;;
57023;SDS011;42916;54.346;18.562;2023-12-28T03:10:14;37.60;;;16.60;;
57023;SDS011;42916;54.346;18.562;2023-12-28T03:12:41;33.90;;;14.00;;
57023;SDS011;42916;54.346;18.562;2023-12-28T03:15:08;39.90;;;15.90;;
57023;SDS011;42916;54.346;18.562;2023-12-28T03:17:35;36.70;;;16.90;;
57023;SDS011;42916;54.346;18.562;2023-12-28T03:20:03;33.10;;;13.90;;
57023;SDS011;42916;54.346;18.562;2023-12-28T03:22:30;34.00;;;15.30;;
57023;SDS011;42916;54.346;18.562;2023-12-28T03:24:57;24.30;;;11.80;;
57023;SDS011;42916;54.346;18.562;2023-12-28T03:27:24;36.10;;;16.60;;
57023;SDS011;42916;54.346;18.562;2023-12-28T03:29:51;42.50;;;18.70;;
57023;SDS011;42916;54.346;18.562;2023-12-28T03:32:18;35.80;;;15.10;;
57023;SDS011;42916;54.346;18.562;2023-12-28T03:34:44;41.70;;;17.80;;
57023;SDS011;42916;54.346;18.562;2023-12-28T03:37:11;38.90;;;14.90;;
57023;SDS011;42916;54.346;18.562;2023-12-28T03:39:38;38.60;;;16.60;;
57023;SDS011;42916;54.346;18.562;2023-12-28T03:42:05;40.90;;;17.50;;
57023;SDS011;42916;54.346;18.562;2023-12-28T03:44:31;35.20;;;15.80;;
57023;SDS011;42916;54.346;18.562;2023-12-28T03:46:58;33.40;;;15.40;;
57023;SDS011;42916;54.346;18.562;2023-12-28T03:49:26;41.20;;;18.10;;
57023;SDS011;42916;54.346;18.562;2023-12-28T03:51:54;36.60;;;17.30;;
57023;SDS011;42916;54.346;18.562;2023-12-28T03:54:21;34.30;;;15.90;;
57023;SDS011;42916;54.346;18.562;2023-12-28T03:56:47;33.70;;;17.20;;
57023;SDS011;42916;54.346;18.562;2023-12-28T03:59:14;35.10;;;15.20;;
57023;SDS011;42916;54.346;18.562;2023-12-28T04:01:41;36.50;;;16.20;;
57023;SDS011;42916;54.346;18.562;2023-12-28T04:04:08;32.10;;;15.80;;
57023;SDS011;42916;54.346;18.562;2023-12-28T04:06:35;35.80;;;13.60;;
57023;SDS011;42916;54.346;18.562;2023-12-28T04:09:02;38.60;;;16.90;;
57023;SDS011;42916;54.346;18.562;2023-12-28T04:11:30;31.80;;;14.50;;
57023;SDS011;42916;54.346;18.562;2023-12-28T04:13:57;34.90;;;15.00;;
57023;SDS011;42916;54.346;18.562;2023-12-28T04:16:24;33.30;;;14.30;;
57023;SDS011;42916;54.346;18.562;2023-12-28T04:18:50;35.60;;;15.30;;
57023;SDS011;42916;54.346;18.562;2023-12-28T04:21:17;22.30;;;11.40;;
57023;SDS011;42916;54.346;18.562;2023-12-28T04:23:44;33.90;;;15.30;;
57023;SDS011;42916;54.346;18.562;2023-12-28T04:26:10;30.40;;;14.70;;
57023;SDS011;42916;54.346;18.562;2023-12-28T04:28:37;32.60;;;14.90;;
57023;SDS011;42916;54.346;18.562;2023-12-28T04:31:04;33.20;;;15.50;;
57023;SDS011;42916;54.346;18.562;2023-12-28T04:33:32;33.20;;;14.10;;
57023;SDS011;42916;54.346;18.562;2023-12-28T04:36:02;34.20;;;13.90;;
57023;SDS011;42916;54.346;18.562;2023-12-28T04:38:30;35.50;;;15.30;;
57023;SDS011;42916;54.346;18.562;2023-12-28T04:40:58;25.20;;;11.40;;
57023;SDS011;42916;54.346;18.562;2023-12-28T04:43:26;27.10;;;12.80;;
57023;SDS011;42916;54.346;18.562;2023-12-28T04:45:53;27.70;;;13.30;;
57023;SDS011;42916;54.346;18.562;2023-12-28T04:48:20;30.20;;;13.00;;
57023;SDS011;42916;54.346;18.562;2023-12-28T04:50:50;22.90;;;11.90;;
57023;SDS011;42916;54.346;18.562;2023-12-28T04:53:17;24.40;;;13.00;;
57023;SDS011;42916;54.346;18.562;2023-12-28T04:55:44;30.60;;;13.50;;
57023;SDS011;42916;54.346;18.562;2023-12-28T04:58:11;27.20;;;12.20;;
57023;SDS011;42916;54.346;18.562;2023-12-28T05:00:40;29.10;;;13.30;;
57023;SDS011;42916;54.346;18.562;2023-12-28T05:03:07;23.20;;;9.90;;
57023;SDS011;42916;54.346;18.562;2023-12-28T05:05:34;27.60;;;10.10;;
57023;SDS011;42916;54.346;18.562;2023-12-28T05:08:01;31.60;;;11.20;;
57023;SDS011;42916;54.346;18.562;2023-12-28T05:10:28;20.80;;;9.70;;
57023;SDS011;42916;54.346;18.562;2023-12-28T05:12:54;22.40;;;9.80;;
57023;SDS011;42916;54.346;18.562;2023-12-28T05:15:22;26.80;;;10.90;;
57023;SDS011;42916;54.346;18.562;2023-12-28T05:17:49;21.70;;;9.90;;
57023;SDS011;42916;54.346;18.562;2023-12-28T05:20:17;18.30;;;9.10;;
57023;SDS011;42916;54.346;18.562;2023-12-28T05:22:44;19.60;;;8.90;;
57023;SDS011;42916;54.346;18.562;2023-12-28T05:25:10;19.90;;;10.20;;
57023;SDS011;42916;54.346;18.562;2023-12-28T05:27:37;17.70;;;9.10;;
57023;SDS011;42916;54.346;18.562;2023-12-28T05:30:04;21.50;;;8.90;;
57023;SDS011;42916;54.346;18.562;2023-12-28T05:32:32;15.00;;;6.80;;
57023;SDS011;42916;54.346;18.562;2023-12-28T05:34:58;25.00;;;9.60;;
57023;SDS011;42916;54.346;18.562;2023-12-28T05:37:25;19.90;;;8.40;;
57023;SDS011;42916;54.346;18.562;2023-12-28T05:39:52;18.10;;;9.20;;
57023;SDS011;42916;54.346;18.562;2023-12-28T05:42:19;19.30;;;8.60;;
57023;SDS011;42916;54.346;18.562;2023-12-28T05:44:46;19.70;;;9.50;;
57023;SDS011;42916;54.346;18.562;2023-12-28T05:47:12;19.30;;;9.10;;
57023;SDS011;42916;54.346;18.562;2023-12-28T05:49:39;23.80;;;9.60;;
57023;SDS011;42916;54.346;18.562;2023-12-28T05:52:06;26.60;;;9.10;;
57023;SDS011;42916;54.346;18.562;2023-12-28T05:54:33;22.60;;;9.80;;
57023;SDS011;42916;54.346;18.562;2023-12-28T05:57:00;25.00;;;10.60;;
57023;SDS011;42916;54.346;18.562;2023-12-28T05:59:27;26.30;;;10.30;;
57023;SDS011;42916;54.346;18.562;2023-12-28T06:01:53;21.50;;;9.60;;
57023;SDS011;42916;54.346;18.562;2023-12-28T06:04:20;20.40;;;10.40;;
57023;SDS011;42916;54.346;18.562;2023-12-28T06:06:47;26.80;;;10.90;;
57023;SDS011;42916;54.346;18.562;2023-12-28T06:09:13;19.80;;;8.70;;
57023;SDS011;42916;54.346;18.562;2023-12-28T06:11:40;26.80;;;10.80;;
57023;SDS011;42916;54.346;18.562;2023-12-28T06:14:07;23.40;;;10.90;;
57023;SDS011;42916;54.346;18.562;2023-12-28T06:16:35;28.10;;;11.80;;
57023;SDS011;42916;54.346;18.562;2023-12-28T06:19:01;24.70;;;11.00;;
57023;SDS011;42916;54.346;18.562;2023-12-28T06:21:28;19.30;;;10.20;;
57023;SDS011;42916;54.346;18.562;2023-12-28T06:23:56;24.90;;;12.00;;
57023;SDS011;42916;54.346;18.562;2023-12-28T06:26:23;25.40;;;11.40;;
57023;SDS011;42916;54.346;18.562;2023-12-28T06:28:50;24.80;;;11.60;;
57023;SDS011;42916;54.346;18.562;2023-12-28T06:31:16;26.40;;;11.30;;
57023;SDS011;42916;54.346;18.562;2023-12-28T06:33:43;28.70;;;12.00;;
57023;SDS011;42916;54.346;18.562;2023-12-28T06:36:11;27.90;;;11.90;;
57023;SDS011;42916;54.346;18.562;2023-12-28T06:38:38;24.60;;;12.10;;
57023;SDS011;42916;54.346;18.562;2023-12-28T06:41:11;26.90;;;12.00;;
57023;SDS011;42916;54.346;18.562;2023-12-28T06:43:38;23.90;;;11.20;;
57023;SDS011;42916;54.346;18.562;2023-12-28T06:46:06;20.80;;;10.10;;
57023;SDS011;42916;54.346;18.562;2023-12-28T06:48:33;24.00;;;12.10;;
57023;SDS011;42916;54.346;18.562;2023-12-28T06:50:59;21.90;;;10.80;;
57023;SDS011;42916;54.346;18.562;2023-12-28T06:53:26;25.90;;;12.00;;
57023;SDS011;42916;54.346;18.562;2023-12-28T06:55:53;20.30;;;9.60;;
57023;SDS011;42916;54.346;18.562;2023-12-28T06:58:20;24.40;;;10.60;;
57023;SDS011;42916;54.346;18.562;2023-12-28T07:00:46;23.90;;;10.40;;
57023;SDS011;42916;54.346;18.562;2023-12-28T07:03:15;19.00;;;9.60;;
57023;SDS011;42916;54.346;18.562;2023-12-28T07:05:42;22.20;;;9.60;;
57023;SDS011;42916;54.346;18.562;2023-12-28T07:08:09;24.60;;;11.10;;
57023;SDS011;42916;54.346;18.562;2023-12-28T07:10:35;23.50;;;11.10;;
57023;SDS011;42916;54.346;18.562;2023-12-28T07:13:02;23.10;;;10.40;;
57023;SDS011;42916;54.346;18.562;2023-12-28T07:15:29;22.30;;;11.00;;
57023;SDS011;42916;54.346;18.562;2023-12-28T07:17:56;22.40;;;10.70;;
57023;SDS011;42916;54.346;18.562;2023-12-28T07:20:23;23.90;;;10.90;;
57023;SDS011;42916;54.346;18.562;2023-12-28T07:22:49;20.70;;;9.90;;
57023;SDS011;42916;54.346;18.562;2023-12-28T07:25:17;24.10;;;10.90;;
57023;SDS011;42916;54.346;18.562;2023-12-28T07:27:44;19.60;;;10.60;;
57023;SDS011;42916;54.346;18.562;2023-12-28T07:30:10;19.60;;;9.80;;
57023;SDS011;42916;54.346;18.562;2023-12-28T07:32:38;31.40;;;9.80;;
57023;SDS011;42916;54.346;18.562;2023-12-28T07:35:04;17.50;;;9.60;;
57023;SDS011;42916;54.346;18.562;2023-12-28T07:37:31;26.10;;;9.80;;
57023;SDS011;42916;54.346;18.562;2023-12-28T07:39:58;21.80;;;9.70;;
57023;SDS011;42916;54.346;18.562;2023-12-28T07:42:25;19.00;;;9.00;;
57023;SDS011;42916;54.346;18.562;2023-12-28T07:44:51;21.40;;;8.70;;
57023;SDS011;42916;54.346;18.562;2023-12-28T07:47:18;21.80;;;9.20;;
57023;SDS011;42916;54.346;18.562;2023-12-28T07:49:45;17.90;;;8.40;;
57023;SDS011;42916;54.346;18.562;2023-12-28T07:52:12;19.90;;;8.60;;
57023;SDS011;42916;54.346;18.562;2023-12-28T07:54:38;16.00;;;8.20;;
57023;SDS011;42916;54.346;18.562;2023-12-28T07:57:05;16.60;;;8.20;;
57023;SDS011;42916;54.346;18.562;2023-12-28T07:59:32;22.30;;;9.20;;
57023;SDS011;42916;54.346;18.562;2023-12-28T08:01:58;20.60;;;9.70;;
57023;SDS011;42916;54.346;18.562;2023-12-28T08:04:25;17.90;;;8.80;;
57023;SDS011;42916;54.346;18.562;2023-12-28T08:06:52;20.50;;;9.00;;
57023;SDS011;42916;54.346;18.562;2023-12-28T08:09:19;18.70;;;8.80;;
57023;SDS011;42916;54.346;18.562;2023-12-28T08:11:45;19.20;;;9.40;;
57023;SDS011;42916;54.346;18.562;2023-12-28T08:14:12;22.00;;;9.20;;
57023;SDS011;42916;54.346;18.562;2023-12-28T08:16:39;16.00;;;9.50;;
57023;SDS011;42916;54.346;18.562;2023-12-28T08:19:05;19.70;;;9.30;;
57023;SDS011;42916;54.346;18.562;2023-12-28T08:21:32;14.60;;;8.20;;
57023;SDS011;42916;54.346;18.562;2023-12-28T08:23:59;16.40;;;7.70;;
57023;SDS011;42916;54.346;18.562;2023-12-28T08:26:26;14.30;;;8.20;;
57023;SDS011;42916;54.346;18.562;2023-12-28T08:28:55;10.90;;;6.50;;
57023;SDS011;42916;54.346;18.562;2023-12-28T08:31:22;21.90;;;9.00;;
57023;SDS011;42916;54.346;18.562;2023-12-28T08:33:49;11.70;;;5.70;;
57023;SDS011;42916;54.346;18.562;2023-12-28T08:36:15;15.00;;;8.10;;
57023;SDS011;42916;54.346;18.562;2023-12-28T08:38:44;14.40;;;7.40;;
57023;SDS011;42916;54.346;18.562;2023-12-28T08:41:17;16.70;;;7.70;;
57023;SDS011;42916;54.346;18.562;2023-12-28T08:43:45;13.80;;;6.60;;
57023;SDS011;42916;54.346;18.562;2023-12-28T08:46:13;11.10;;;6.40;;
57023;SDS011;42916;54.346;18.562;2023-12-28T08:48:41;13.80;;;7.60;;
57023;SDS011;42916;54.346;18.562;2023-12-28T08:51:09;15.80;;;7.10;;
57023;SDS011;42916;54.346;18.562;2023-12-28T08:53:37;13.40;;;7.50;;
57023;SDS011;42916;54.346;18.562;2023-12-28T08:56:17;13.90;;;7.20;;
57023;SDS011;42916;54.346;18.562;2023-12-28T08:58:45;13.10;;;7.60;;
57023;SDS011;42916;54.346;18.562;2023-12-28T09:01:22;10.90;;;7.00;;
57023;SDS011;42916;54.346;18.562;2023-12-28T09:03:49;13.90;;;7.80;;
57023;SDS011;42916;54.346;18.562;2023-12-28T09:06:16;15.40;;;7.50;;
57023;SDS011;42916;54.346;18.562;2023-12-28T09:08:44;16.20;;;7.10;;
57023;SDS011;42916;54.346;18.562;2023-12-28T09:11:14;13.80;;;7.90;;
57023;SDS011;42916;54.346;18.562;2023-12-28T09:13:41;17.20;;;7.90;;
57023;SDS011;42916;54.346;18.562;2023-12-28T09:16:11;17.20;;;7.90;;
57023;SDS011;42916;54.346;18.562;2023-12-28T09:18:39;13.10;;;7.70;;
57023;SDS011;42916;54.346;18.562;2023-12-28T09:21:07;17.30;;;8.50;;
57023;SDS011;42916;54.346;18.562;2023-12-28T09:23:35;18.40;;;9.40;;
57023;SDS011;42916;54.346;18.562;2023-12-28T09:26:02;16.40;;;8.30;;
57023;SDS011;42916;54.346;18.562;2023-12-28T09:28:33;13.10;;;7.90;;
57023;SDS011;42916;54.346;18.562;2023-12-28T09:31:03;16.00;;;7.60;;
57023;SDS011;42916;54.346;18.562;2023-12-28T09:33:30;15.60;;;7.70;;
57023;SDS011;42916;54.346;18.562;2023-12-28T09:35:59;15.30;;;7.50;;
57023;SDS011;42916;54.346;18.562;2023-12-28T09:38:26;18.40;;;8.10;;
57023;SDS011;42916;54.346;18.562;2023-12-28T09:40:54;14.90;;;7.90;;
57023;SDS011;42916;54.346;18.562;2023-12-28T09:43:25;12.20;;;7.60;;
57023;SDS011;42916;54.346;18.562;2023-12-28T09:45:56;14.30;;;7.70;;
57023;SDS011;42916;54.346;18.562;2023-12-28T09:48:23;13.90;;;7.90;;
57023;SDS011;42916;54.346;18.562;2023-12-28T09:50:50;17.60;;;7.90;;
57023;SDS011;42916;54.346;18.562;2023-12-28T09:53:21;17.10;;;7.90;;
57023;SDS011;42916;54.346;18.562;2023-12-28T09:55:49;11.60;;;7.60;;
57023;SDS011;42916;54.346;18.562;2023-12-28T09:58:18;13.70;;;7.90;;
57023;SDS011;42916;54.346;18.562;2023-12-28T10:00:46;13.40;;;7.40;;
57023;SDS011;42916;54.346;18.562;2023-12-28T10:03:15;12.80;;;7.40;;
57023;SDS011;42916;54.346;18.562;2023-12-28T10:05:44;13.00;;;7.20;;
57023;SDS011;42916;54.346;18.562;2023-12-28T10:08:14;14.30;;;7.20;;
57023;SDS011;42916;54.346;18.562;2023-12-28T10:10:42;12.10;;;6.90;;
57023;SDS011;42916;54.346;18.562;2023-12-28T10:13:10;10.60;;;6.20;;
57023;SDS011;42916;54.346;18.562;2023-12-28T10:15:37;9.50;;;6.60;;
57023;SDS011;42916;54.346;18.562;2023-12-28T10:18:05;14.70;;;6.90;;
57023;SDS011;42916;54.346;18.562;2023-12-28T10:20:32;11.50;;;7.20;;
57023;SDS011;42916;54.346;18.562;2023-12-28T10:22:59;15.70;;;7.00;;
57023;SDS011;42916;54.346;18.562;2023-12-28T10:25:27;11.10;;;6.80;;
57023;SDS011;42916;54.346;18.562;2023-12-28T10:27:55;14.30;;;6.90;;
57023;SDS011;42916;54.346;18.562;2023-12-28T10:30:22;14.30;;;7.60;;
57023;SDS011;42916;54.346;18.562;2023-12-28T10:32:49;14.10;;;7.20;;
57023;SDS011;42916;54.346;18.562;2023-12-28T10:35:16;11.80;;;6.80;;
57023;SDS011;42916;54.346;18.562;2023-12-28T10:37:42;8.90;;;6.70;;
57023;SDS011;42916;54.346;18.562;2023-12-28T10:40:11;13.00;;;6.90;;
57023;SDS011;42916;54.346;18.562;2023-12-28T10:42:59;11.30;;;6.50;;
57023;SDS011;42916;54.346;18.562;2023-12-28T10:45:32;10.70;;;6.70;;
57023;SDS011;42916;54.346;18.562;2023-12-28T10:50:46;13.50;;;7.20;;
57023;SDS011;42916;54.346;18.562;2023-12-28T10:56:35;17.00;;;7.20;;
57023;SDS011;42916;54.346;18.562;2023-12-28T11:01:58;14.40;;;7.50;;
57023;SDS011;42916;54.346;18.562;2023-12-28T11:04:31;11.40;;;7.20;;
57023;SDS011;42916;54.346;18.562;2023-12-28T11:07:05;13.60;;;7.40;;
57023;SDS011;42916;54.346;18.562;2023-12-28T11:09:33;10.80;;;6.60;;
57023;SDS011;42916;54.346;18.562;2023-12-28T11:12:01;10.90;;;6.70;;
57023;SDS011;42916;54.346;18.562;2023-12-28T11:14:30;10.40;;;6.50;;
57023;SDS011;42916;54.346;18.562;2023-12-28T11:16:58;10.20;;;5.80;;
57023;SDS011;42916;54.346;18.562;2023-12-28T11:21:55;9.70;;;5.70;;
57023;SDS011;42916;54.346;18.562;2023-12-28T11:24:23;13.00;;;6.60;;
57023;SDS011;42916;54.346;18.562;2023-12-28T11:26:53;9.10;;;4.60;;
57023;SDS011;42916;54.346;18.562;2023-12-28T11:29:23;9.00;;;5.00;;
57023;SDS011;42916;54.346;18.562;2023-12-28T11:31:54;8.80;;;4.60;;
57023;SDS011;42916;54.346;18.562;2023-12-28T11:34:24;8.70;;;5.20;;
57023;SDS011;42916;54.346;18.562;2023-12-28T11:36:52;9.50;;;4.70;;
57023;SDS011;42916;54.346;18.562;2023-12-28T11:41:58;10.10;;;5.10;;
57023;SDS011;42916;54.346;18.562;2023-12-28T11:44:27;12.00;;;4.70;;
57023;SDS011;42916;54.346;18.562;2023-12-28T11:46:54;7.50;;;4.10;;
57023;SDS011;42916;54.346;18.562;2023-12-28T11:49:24;8.00;;;4.50;;
57023;SDS011;42916;54.346;18.562;2023-12-28T11:51:57;8.80;;;4.20;;
57023;SDS011;42916;54.346;18.562;2023-12-28T11:54:24;10.70;;;4.50;;
57023;SDS011;42916;54.346;18.562;2023-12-28T11:56:55;9.60;;;4.90;;
57023;SDS011;42916;54.346;18.562;2023-12-28T11:59:21;11.10;;;4.10;;
57023;SDS011;42916;54.346;18.562;2023-12-28T12:01:51;7.30;;;4.10;;
57023;SDS011;42916;54.346;18.562;2023-12-28T12:04:19;8.50;;;4.10;;
57023;SDS011;42916;54.346;18.562;2023-12-28T12:06:47;7.80;;;4.00;;
57023;SDS011;42916;54.346;18.562;2023-12-28T12:09:14;7.40;;;3.90;;
57023;SDS011;42916;54.346;18.562;2023-12-28T12:11:41;7.70;;;4.20;;
57023;SDS011;42916;54.346;18.562;2023-12-28T12:14:10;8.10;;;4.40;;
57023;SDS011;42916;54.346;18.562;2023-12-28T12:16:37;9.00;;;5.20;;
57023;SDS011;42916;54.346;18.562;2023-12-28T12:19:05;9.30;;;4.40;;
57023;SDS011;42916;54.346;18.562;2023-12-28T12:21:33;5.40;;;4.00;;
57023;SDS011;42916;54.346;18.562;2023-12-28T12:24:00;11.30;;;5.00;;
57023;SDS011;42916;54.346;18.562;2023-12-28T12:26:30;6.60;;;3.80;;
57023;SDS011;42916;54.346;18.562;2023-12-28T12:28:58;9.30;;;4.00;;
57023;SDS011;42916;54.346;18.562;2023-12-28T12:31:25;8.40;;;4.20;;
57023;SDS011;42916;54.346;18.562;2023-12-28T12:33:52;5.60;;;3.70;;
57023;SDS011;42916;54.346;18.562;2023-12-28T12:36:19;7.70;;;3.70;;
57023;SDS011;42916;54.346;18.562;2023-12-28T12:38:48;6.40;;;3.40;;
57023;SDS011;42916;54.346;18.562;2023-12-28T12:41:14;8.60;;;3.90;;
57023;SDS011;42916;54.346;18.562;2023-12-28T12:43:41;8.00;;;4.40;;
57023;SDS011;42916;54.346;18.562;2023-12-28T12:46:08;7.10;;;3.90;;
57023;SDS011;42916;54.346;18.562;2023-12-28T12:48:35;7.40;;;4.10;;
57023;SDS011;42916;54.346;18.562;2023-12-28T12:51:02;9.20;;;4.00;;
57023;SDS011;42916;54.346;18.562;2023-12-28T12:53:33;8.50;;;3.80;;
57023;SDS011;42916;54.346;18.562;2023-12-28T12:56:01;7.20;;;3.80;;
57023;SDS011;42916;54.346;18.562;2023-12-28T12:58:30;6.50;;;3.50;;
57023;SDS011;42916;54.346;18.562;2023-12-28T13:00:57;6.00;;;4.20;;
57023;SDS011;42916;54.346;18.562;2023-12-28T13:03:27;9.40;;;4.00;;
57023;SDS011;42916;54.346;18.562;2023-12-28T13:05:56;7.20;;;3.30;;
57023;SDS011;42916;54.346;18.562;2023-12-28T13:08:23;5.80;;;3.50;;
57023;SDS011;42916;54.346;18.562;2023-12-28T13:10:50;8.50;;;3.40;;
57023;SDS011;42916;54.346;18.562;2023-12-28T13:13:17;8.30;;;3.60;;
57023;SDS011;42916;54.346;18.562;2023-12-28T13:15:43;8.40;;;3.70;;
57023;SDS011;42916;54.346;18.562;2023-12-28T13:18:10;6.50;;;3.60;;
57023;SDS011;42916;54.346;18.562;2023-12-28T13:20:37;5.80;;;3.30;;
57023;SDS011;42916;54.346;18.562;2023-12-28T13:23:04;8.80;;;4.10;;
57023;SDS011;42916;54.346;18.562;2023-12-28T13:25:31;6.80;;;3.50;;
57023;SDS011;42916;54.346;18.562;2023-12-28T13:27:57;7.40;;;4.30;;
57023;SDS011;42916;54.346;18.562;2023-12-28T13:30:24;10.60;;;4.30;;
57023;SDS011;42916;54.346;18.562;2023-12-28T13:32:54;9.80;;;4.10;;
57023;SDS011;42916;54.346;18.562;2023-12-28T13:35:25;12.70;;;4.70;;
57023;SDS011;42916;54.346;18.562;2023-12-28T13:37:52;9.90;;;4.20;;
57023;SDS011;42916;54.346;18.562;2023-12-28T13:40:18;8.20;;;4.10;;
57023;SDS011;42916;54.346;18.562;2023-12-28T13:42:46;6.90;;;4.70;;
57023;SDS011;42916;54.346;18.562;2023-12-28T13:45:13;9.90;;;4.00;;
57023;SDS011;42916;54.346;18.562;2023-12-28T13:47:40;10.10;;;4.30;;
57023;SDS011;42916;54.346;18.562;2023-12-28T13:50:06;11.50;;;5.00;;
57023;SDS011;42916;54.346;18.562;2023-12-28T13:52:33;9.20;;;4.80;;
57023;SDS011;42916;54.346;18.562;2023-12-28T13:55:00;9.30;;;4.60;;
57023;SDS011;42916;54.346;18.562;2023-12-28T13:57:27;9.30;;;4.40;;
57023;SDS011;42916;54.346;18.562;2023-12-28T13:59:54;7.90;;;4.50;;
57023;SDS011;42916;54.346;18.562;2023-12-28T14:02:22;6.70;;;4.20;;
57023;SDS011;42916;54.346;18.562;2023-12-28T14:04:51;8.10;;;4.30;;
57023;SDS011;42916;54.346;18.562;2023-12-28T14:07:17;9.30;;;4.30;;
57023;SDS011;42916;54.346;18.562;2023-12-28T14:09:44;8.40;;;4.40;;
57023;SDS011;42916;54.346;18.562;2023-12-28T14:12:11;4.70;;;3.10;;
57023;SDS011;42916;54.346;18.562;2023-12-28T14:14:37;5.80;;;3.80;;
57023;SDS011;42916;54.346;18.562;2023-12-28T14:17:04;9.50;;;4.70;;
57023;SDS011;42916;54.346;18.562;2023-12-28T14:19:31;6.30;;;4.30;;
57023;SDS011;42916;54.346;18.562;2023-12-28T14:21:59;8.10;;;3.90;;
57023;SDS011;42916;54.346;18.562;2023-12-28T14:24:26;6.50;;;3.60;;
57023;SDS011;42916;54.346;18.562;2023-12-28T14:26:53;9.50;;;4.00;;
57023;SDS011;42916;54.346;18.562;2023-12-28T14:29:21;8.00;;;3.90;;
57023;SDS011;42916;54.346;18.562;2023-12-28T14:31:49;7.70;;;4.00;;
57023;SDS011;42916;54.346;18.562;2023-12-28T14:34:16;7.80;;;3.80;;
57023;SDS011;42916;54.346;18.562;2023-12-28T14:36:44;6.80;;;3.60;;
57023;SDS011;42916;54.346;18.562;2023-12-28T14:39:17;7.10;;;4.00;;
57023;SDS011;42916;54.346;18.562;2023-12-28T14:41:46;9.20;;;3.90;;
57023;SDS011;42916;54.346;18.562;2023-12-28T14:44:13;9.80;;;4.50;;